Friday, April 25, 2014
02:27 UTC
  |  Log In   |  Register Free
Airport Search:

Live Oak County Airport
(8T6)

Live Oak County Airport Diagram
No Airport Diagram Available

FAA data valid effective April 3, 2014 until May 29, 2014 (unless otherwise noted).

 
 
 
 
 
 
 
 
 
 
 
 
 
 

Current Aviation Weather for Live Oak County Airport (8T6)

The most recent METAR observation for KBEA was updated at: 0155 UTC
METAR Summary (Translated METAR)
KBEA
250155Z AUTO 14006KT 10SM CLR 24/21 A2985 RMK AO2 T02360205
KRBO
(35.4 nm SE from KBEA)
250135Z AUTO 13009KT 10SM CLR 25/21 A2984 RMK AO2 T02480205
TAF Summary (Translated TAF)
KCRP
(38.7 nm SE from KBEA)
242118Z 2421/2518 13013KT P6SM BKN035 TEMPO 2421/2424 OVC030 FM250200 13012KT P6SM BKN015 FM250700 VRB04KT 5SM BR OVC007 TEMPO 2511/2515 1SM BR OVC004 FM251600 09010KT P6SM SCT020 BKN035
  Airport Weather Conditions for 8T6

Current weather conditions are
not available for 8T6


The nearest NOAA weather station
is at BEA, (17.2 nm SE from 8T6)
  
 Current Weather at BEA
74° F
Fair
Southeast winds at 6.9 mph
BEA NOAA Radar

Pressure: 29.85 in
Humidity: 83%
Wind: Southeast at 6.9 MPH (6 KT)
Dew Point: 68.9°F
Visibility: 10.00 mi


Airport Weather Forecast for 8T6

Translated METAR and TAF for KBEA
Translated METAR for KBEA (0227 UTC 25 April 2014)
found at http://aviationweather.gov/adds/metars/
 
METAR text: KBEA 250215Z AUTO 13005KT 10SM CLR 23/21 A2986 RMK AO2 T02300205
Conditions at: KBEA (BEEVILLE MUNI , TX, US) observed 0215 UTC 25 April 2014
Temperature: 23.0°C (73°F)
Dewpoint: 20.5°C (69°F) [RH = 86%]
Pressure (altimeter): 29.86 inches Hg (1011.3 mb)
Winds: from the SE (130 degrees) at 6 MPH (5 knots; 2.6 m/s)
Visibility: 10 or more miles (16+ km)
Ceiling: at least 12,000 feet AGL
Clouds: sky clear below 12,000 feet AGL
Weather: automated observation with no human augmentation;
there may or may not be significant weather present at this time
Translated TAF for KBEA

There is no translated TAF available for this airport

Find All Airport Services Find A Hotel Find A Rental Car Find A Golf Course Find A Restaurant $100 Hamburger



FBO's on the Field
FBO Company Facility Photos Services Transportation Aviation Fuel Prices: Prices include tax
Catering Weather Repair Courtesy Rental Type 100LL JetA JetA+ MOGAS 8087
 
Live Oak Co. Airport

This FBO has not yet been rated
FS:Avfuel
Last Updated: Apr-14
Login to update fuel prices
SS:
Contact Live Oak Co. AirportMore FBO Information
 
Add another FBO Facility Photos Catering Weather Repair Courtesy Rental Type 100LL JetA JetA+ MOGAS 8087
Services Transportation Aviation Fuel Prices: Prices include tax


GlobalAir.com Airport Resource Center model-print
model-print
model-print
model-print